logo
Search for airport 
image banner adimage banner adimage banner ad
image banner ad

FLKZ - Mwanya

Located in Chombelao, Zambia

ICAO - FLKZ, IATA -

Data provided by Airmate  

General information

Coordinates: S12°50'43" E32°2'25"
Elevation is 1801 feet MSL.
Magnetic variation is -4° East
View others Airports in Eastern Province

Operational data

Special qualification required
Current time UTC:
Current local time:
Weather at : FLMF - Mfuwe ( 47 km )
TAF: TAF FLMF 151600Z 1518/1624 13010KT 9999 SCT040 BKN090 FM152000 CAVOK BECMG 1604/1606 12005KT BKN010 BECMG 1608/1610 BKN025
View NOTAMs / SUP AIP / TFR affecting this airport [VIEW]
Communications frequencies: [VIEW]

Runways:

RWY identifierQFULength (ft)Width (ft)SurfaceLDA (ft)
1000UNK
2800UNK
0658°3972103GRAS
24238°3972103GRAS

Airport contact information

Address: Chombelao Zambia

Satellite view of FLKZ